sensor_id;sensor_type;location;lat;lon;timestamp;temperature;humidity
57566;DHT22;63999;43.882;-0.310;2023-09-07T00:01:49;25.90;73.40
57566;DHT22;63999;43.882;-0.310;2023-09-07T00:04:18;25.90;73.30
57566;DHT22;63999;43.882;-0.310;2023-09-07T00:06:44;25.90;73.30
57566;DHT22;63999;43.882;-0.310;2023-09-07T00:09:10;25.80;73.20
57566;DHT22;63999;43.882;-0.310;2023-09-07T00:11:37;25.80;73.20
57566;DHT22;63999;43.882;-0.310;2023-09-07T00:14:04;25.80;73.20
57566;DHT22;63999;43.882;-0.310;2023-09-07T00:16:33;25.80;73.30
57566;DHT22;63999;43.882;-0.310;2023-09-07T00:19:06;25.80;73.20
57566;DHT22;63999;43.882;-0.310;2023-09-07T00:21:32;25.80;73.20
57566;DHT22;63999;43.882;-0.310;2023-09-07T00:23:57;25.80;73.20
57566;DHT22;63999;43.882;-0.310;2023-09-07T00:26:23;25.80;73.20
57566;DHT22;63999;43.882;-0.310;2023-09-07T00:28:49;25.80;73.20
57566;DHT22;63999;43.882;-0.310;2023-09-07T00:31:15;25.80;73.10
57566;DHT22;63999;43.882;-0.310;2023-09-07T00:33:40;25.80;73.00
57566;DHT22;63999;43.882;-0.310;2023-09-07T00:36:06;25.80;73.00
57566;DHT22;63999;43.882;-0.310;2023-09-07T00:38:32;25.70;73.00
57566;DHT22;63999;43.882;-0.310;2023-09-07T00:40:57;25.70;72.90
57566;DHT22;63999;43.882;-0.310;2023-09-07T00:43:23;25.60;72.90
57566;DHT22;63999;43.882;-0.310;2023-09-07T00:45:49;25.60;72.80
57566;DHT22;63999;43.882;-0.310;2023-09-07T00:48:16;25.60;72.70
57566;DHT22;63999;43.882;-0.310;2023-09-07T00:50:42;25.60;72.60
57566;DHT22;63999;43.882;-0.310;2023-09-07T00:53:09;25.60;72.60
57566;DHT22;63999;43.882;-0.310;2023-09-07T00:55:35;25.60;72.60
57566;DHT22;63999;43.882;-0.310;2023-09-07T00:58:04;25.50;72.60
57566;DHT22;63999;43.882;-0.310;2023-09-07T01:00:30;25.50;72.60
57566;DHT22;63999;43.882;-0.310;2023-09-07T01:02:56;25.50;72.60
57566;DHT22;63999;43.882;-0.310;2023-09-07T01:05:27;25.50;72.50
57566;DHT22;63999;43.882;-0.310;2023-09-07T01:07:59;25.50;72.40
57566;DHT22;63999;43.882;-0.310;2023-09-07T01:10:28;25.40;72.30
57566;DHT22;63999;43.882;-0.310;2023-09-07T01:12:54;25.40;72.30
57566;DHT22;63999;43.882;-0.310;2023-09-07T01:15:19;25.40;72.20
57566;DHT22;63999;43.882;-0.310;2023-09-07T01:17:45;25.40;72.20
57566;DHT22;63999;43.882;-0.310;2023-09-07T01:20:15;25.40;72.20
57566;DHT22;63999;43.882;-0.310;2023-09-07T01:22:42;25.30;72.10
57566;DHT22;63999;43.882;-0.310;2023-09-07T01:25:09;25.30;72.20
57566;DHT22;63999;43.882;-0.310;2023-09-07T01:27:35;25.30;72.20
57566;DHT22;63999;43.882;-0.310;2023-09-07T01:30:02;25.30;72.00
57566;DHT22;63999;43.882;-0.310;2023-09-07T01:32:30;25.20;71.90
57566;DHT22;63999;43.882;-0.310;2023-09-07T01:34:57;25.20;71.90
57566;DHT22;63999;43.882;-0.310;2023-09-07T01:37:23;25.20;71.80
57566;DHT22;63999;43.882;-0.310;2023-09-07T01:39:49;25.20;71.70
57566;DHT22;63999;43.882;-0.310;2023-09-07T01:42:15;25.10;71.70
57566;DHT22;63999;43.882;-0.310;2023-09-07T01:44:41;25.00;71.50
57566;DHT22;63999;43.882;-0.310;2023-09-07T01:47:08;25.00;71.50
57566;DHT22;63999;43.882;-0.310;2023-09-07T01:49:34;25.00;71.30
57566;DHT22;63999;43.882;-0.310;2023-09-07T01:52:00;25.00;71.20
57566;DHT22;63999;43.882;-0.310;2023-09-07T01:54:25;25.00;71.20
57566;DHT22;63999;43.882;-0.310;2023-09-07T01:56:51;25.00;71.20
57566;DHT22;63999;43.882;-0.310;2023-09-07T01:59:17;24.90;71.10
57566;DHT22;63999;43.882;-0.310;2023-09-07T02:01:42;24.90;71.00
57566;DHT22;63999;43.882;-0.310;2023-09-07T02:04:08;24.80;71.00
57566;DHT22;63999;43.882;-0.310;2023-09-07T02:06:34;24.80;70.80
57566;DHT22;63999;43.882;-0.310;2023-09-07T02:09:00;24.80;70.80
57566;DHT22;63999;43.882;-0.310;2023-09-07T02:11:25;24.80;70.80
57566;DHT22;63999;43.882;-0.310;2023-09-07T02:13:51;24.80;70.80
57566;DHT22;63999;43.882;-0.310;2023-09-07T02:16:17;24.80;70.80
57566;DHT22;63999;43.882;-0.310;2023-09-07T02:18:44;24.80;70.80
57566;DHT22;63999;43.882;-0.310;2023-09-07T02:21:11;24.80;70.70
57566;DHT22;63999;43.882;-0.310;2023-09-07T02:23:37;24.70;70.50
57566;DHT22;63999;43.882;-0.310;2023-09-07T02:26:03;24.70;70.60
57566;DHT22;63999;43.882;-0.310;2023-09-07T02:28:29;24.70;70.50
57566;DHT22;63999;43.882;-0.310;2023-09-07T02:31:05;24.60;70.30
57566;DHT22;63999;43.882;-0.310;2023-09-07T02:33:32;24.60;70.30
57566;DHT22;63999;43.882;-0.310;2023-09-07T02:35:57;24.60;70.30
57566;DHT22;63999;43.882;-0.310;2023-09-07T02:38:24;24.60;70.40
57566;DHT22;63999;43.882;-0.310;2023-09-07T02:40:49;24.60;70.20
57566;DHT22;63999;43.882;-0.310;2023-09-07T02:43:15;24.50;70.10
57566;DHT22;63999;43.882;-0.310;2023-09-07T02:45:42;24.50;69.90
57566;DHT22;63999;43.882;-0.310;2023-09-07T02:48:07;24.50;69.80
57566;DHT22;63999;43.882;-0.310;2023-09-07T02:50:34;24.40;69.80
57566;DHT22;63999;43.882;-0.310;2023-09-07T02:53:01;24.40;69.40
57566;DHT22;63999;43.882;-0.310;2023-09-07T02:55:27;24.40;69.30
57566;DHT22;63999;43.882;-0.310;2023-09-07T02:57:53;24.20;69.10
57566;DHT22;63999;43.882;-0.310;2023-09-07T03:00:21;24.20;68.90
57566;DHT22;63999;43.882;-0.310;2023-09-07T03:02:47;24.00;69.10
57566;DHT22;63999;43.882;-0.310;2023-09-07T03:05:16;24.00;69.30
57566;DHT22;63999;43.882;-0.310;2023-09-07T03:07:45;24.00;69.30
57566;DHT22;63999;43.882;-0.310;2023-09-07T03:10:10;24.00;69.00
57566;DHT22;63999;43.882;-0.310;2023-09-07T03:12:36;24.00;68.70
57566;DHT22;63999;43.882;-0.310;2023-09-07T03:15:03;24.00;68.80
57566;DHT22;63999;43.882;-0.310;2023-09-07T03:17:29;23.90;68.90
57566;DHT22;63999;43.882;-0.310;2023-09-07T03:19:55;23.90;68.80
57566;DHT22;63999;43.882;-0.310;2023-09-07T03:22:22;23.90;68.70
57566;DHT22;63999;43.882;-0.310;2023-09-07T03:24:52;23.90;68.90
57566;DHT22;63999;43.882;-0.310;2023-09-07T03:27:17;23.80;68.50
57566;DHT22;63999;43.882;-0.310;2023-09-07T03:29:46;23.80;68.50
57566;DHT22;63999;43.882;-0.310;2023-09-07T03:32:12;23.80;69.10
57566;DHT22;63999;43.882;-0.310;2023-09-07T03:34:38;23.80;68.40
57566;DHT22;63999;43.882;-0.310;2023-09-07T03:37:03;23.80;68.40
57566;DHT22;63999;43.882;-0.310;2023-09-07T03:39:32;23.80;68.40
57566;DHT22;63999;43.882;-0.310;2023-09-07T03:41:57;23.70;68.30
57566;DHT22;63999;43.882;-0.310;2023-09-07T03:44:23;23.70;68.30
57566;DHT22;63999;43.882;-0.310;2023-09-07T03:46:49;23.70;68.70
57566;DHT22;63999;43.882;-0.310;2023-09-07T03:49:14;23.60;68.20
57566;DHT22;63999;43.882;-0.310;2023-09-07T03:51:40;23.60;68.10
57566;DHT22;63999;43.882;-0.310;2023-09-07T03:54:06;23.60;68.20
57566;DHT22;63999;43.882;-0.310;2023-09-07T03:56:32;23.60;68.30
57566;DHT22;63999;43.882;-0.310;2023-09-07T03:58:58;23.60;68.30
57566;DHT22;63999;43.882;-0.310;2023-09-07T04:01:23;23.60;68.20
57566;DHT22;63999;43.882;-0.310;2023-09-07T04:03:49;23.60;67.70
57566;DHT22;63999;43.882;-0.310;2023-09-07T04:06:15;23.50;67.80
57566;DHT22;63999;43.882;-0.310;2023-09-07T04:08:41;23.50;67.80
57566;DHT22;63999;43.882;-0.310;2023-09-07T04:11:07;23.50;67.60
57566;DHT22;63999;43.882;-0.310;2023-09-07T04:13:33;23.40;67.40
57566;DHT22;63999;43.882;-0.310;2023-09-07T04:15:58;23.40;67.40
57566;DHT22;63999;43.882;-0.310;2023-09-07T04:18:24;23.30;67.30
57566;DHT22;63999;43.882;-0.310;2023-09-07T04:20:50;23.30;67.40
57566;DHT22;63999;43.882;-0.310;2023-09-07T04:23:16;23.30;67.50
57566;DHT22;63999;43.882;-0.310;2023-09-07T04:25:41;23.30;67.50
57566;DHT22;63999;43.882;-0.310;2023-09-07T04:28:07;23.30;67.50
57566;DHT22;63999;43.882;-0.310;2023-09-07T04:30:37;23.30;67.50
57566;DHT22;63999;43.882;-0.310;2023-09-07T04:33:03;23.30;67.60
57566;DHT22;63999;43.882;-0.310;2023-09-07T04:35:29;23.30;67.40
57566;DHT22;63999;43.882;-0.310;2023-09-07T04:37:56;23.30;67.40
57566;DHT22;63999;43.882;-0.310;2023-09-07T04:40:22;23.30;67.60
57566;DHT22;63999;43.882;-0.310;2023-09-07T04:42:48;23.30;67.30
57566;DHT22;63999;43.882;-0.310;2023-09-07T04:45:14;23.30;67.40
57566;DHT22;63999;43.882;-0.310;2023-09-07T04:47:39;23.30;67.20
57566;DHT22;63999;43.882;-0.310;2023-09-07T04:50:06;23.20;67.30
57566;DHT22;63999;43.882;-0.310;2023-09-07T04:52:32;23.20;67.30
57566;DHT22;63999;43.882;-0.310;2023-09-07T04:54:58;23.20;67.20
57566;DHT22;63999;43.882;-0.310;2023-09-07T04:57:23;23.20;67.20
57566;DHT22;63999;43.882;-0.310;2023-09-07T04:59:49;23.20;67.20
57566;DHT22;63999;43.882;-0.310;2023-09-07T05:02:15;23.10;67.10
57566;DHT22;63999;43.882;-0.310;2023-09-07T05:04:40;23.10;67.10
57566;DHT22;63999;43.882;-0.310;2023-09-07T05:07:06;23.10;67.00
57566;DHT22;63999;43.882;-0.310;2023-09-07T05:09:32;23.00;66.90
57566;DHT22;63999;43.882;-0.310;2023-09-07T05:11:58;23.00;67.00
57566;DHT22;63999;43.882;-0.310;2023-09-07T05:14:24;23.00;67.00
57566;DHT22;63999;43.882;-0.310;2023-09-07T05:16:50;23.00;67.10
57566;DHT22;63999;43.882;-0.310;2023-09-07T05:19:16;23.00;67.00
57566;DHT22;63999;43.882;-0.310;2023-09-07T05:21:42;22.90;67.10
57566;DHT22;63999;43.882;-0.310;2023-09-07T05:24:08;23.00;67.00
57566;DHT22;63999;43.882;-0.310;2023-09-07T05:26:33;22.90;66.90
57566;DHT22;63999;43.882;-0.310;2023-09-07T05:28:59;22.90;66.90
57566;DHT22;63999;43.882;-0.310;2023-09-07T05:31:25;22.80;66.80
57566;DHT22;63999;43.882;-0.310;2023-09-07T05:33:51;22.80;66.90
57566;DHT22;63999;43.882;-0.310;2023-09-07T05:36:17;22.80;67.00
57566;DHT22;63999;43.882;-0.310;2023-09-07T05:38:43;22.80;66.90
57566;DHT22;63999;43.882;-0.310;2023-09-07T05:41:09;22.80;67.00
57566;DHT22;63999;43.882;-0.310;2023-09-07T05:43:34;22.80;67.00
57566;DHT22;63999;43.882;-0.310;2023-09-07T05:46:00;22.80;67.00
57566;DHT22;63999;43.882;-0.310;2023-09-07T05:48:26;22.80;66.80
57566;DHT22;63999;43.882;-0.310;2023-09-07T05:50:52;22.80;66.80
57566;DHT22;63999;43.882;-0.310;2023-09-07T05:53:21;22.80;66.80
57566;DHT22;63999;43.882;-0.310;2023-09-07T05:55:46;22.70;66.90
57566;DHT22;63999;43.882;-0.310;2023-09-07T05:58:12;22.70;66.80
57566;DHT22;63999;43.882;-0.310;2023-09-07T06:00:39;22.70;66.90
57566;DHT22;63999;43.882;-0.310;2023-09-07T06:03:07;22.70;67.00
57566;DHT22;63999;43.882;-0.310;2023-09-07T06:05:34;22.70;66.90
57566;DHT22;63999;43.882;-0.310;2023-09-07T06:08:01;22.70;66.90
57566;DHT22;63999;43.882;-0.310;2023-09-07T06:10:28;22.70;66.90
57566;DHT22;63999;43.882;-0.310;2023-09-07T06:12:55;22.60;66.80
57566;DHT22;63999;43.882;-0.310;2023-09-07T06:15:21;22.60;66.90
57566;DHT22;63999;43.882;-0.310;2023-09-07T06:17:47;22.60;67.10
57566;DHT22;63999;43.882;-0.310;2023-09-07T06:20:13;22.60;67.10
57566;DHT22;63999;43.882;-0.310;2023-09-07T06:22:39;22.60;67.20
57566;DHT22;63999;43.882;-0.310;2023-09-07T06:25:04;22.70;67.30
57566;DHT22;63999;43.882;-0.310;2023-09-07T06:27:30;22.70;67.10
57566;DHT22;63999;43.882;-0.310;2023-09-07T06:29:56;22.70;67.10
57566;DHT22;63999;43.882;-0.310;2023-09-07T06:32:22;22.70;67.20
57566;DHT22;63999;43.882;-0.310;2023-09-07T06:34:48;22.60;67.30
57566;DHT22;63999;43.882;-0.310;2023-09-07T06:37:13;22.60;67.90
57566;DHT22;63999;43.882;-0.310;2023-09-07T06:39:39;22.60;67.30
57566;DHT22;63999;43.882;-0.310;2023-09-07T06:42:08;22.60;67.10
57566;DHT22;63999;43.882;-0.310;2023-09-07T06:44:35;22.60;67.10
57566;DHT22;63999;43.882;-0.310;2023-09-07T06:47:01;22.60;66.90
57566;DHT22;63999;43.882;-0.310;2023-09-07T06:49:27;22.60;67.30
57566;DHT22;63999;43.882;-0.310;2023-09-07T06:51:55;22.60;67.30
57566;DHT22;63999;43.882;-0.310;2023-09-07T06:54:21;22.60;67.20
57566;DHT22;63999;43.882;-0.310;2023-09-07T06:56:47;22.60;67.20
57566;DHT22;63999;43.882;-0.310;2023-09-07T06:59:13;22.60;67.60
57566;DHT22;63999;43.882;-0.310;2023-09-07T07:01:39;22.60;67.50
57566;DHT22;63999;43.882;-0.310;2023-09-07T07:04:05;22.60;67.10
57566;DHT22;63999;43.882;-0.310;2023-09-07T07:06:31;22.60;67.60
57566;DHT22;63999;43.882;-0.310;2023-09-07T07:08:56;22.60;67.30
57566;DHT22;63999;43.882;-0.310;2023-09-07T07:11:22;22.60;67.30
57566;DHT22;63999;43.882;-0.310;2023-09-07T07:13:48;22.70;67.60
57566;DHT22;63999;43.882;-0.310;2023-09-07T07:16:13;22.70;67.40
57566;DHT22;63999;43.882;-0.310;2023-09-07T07:18:39;22.80;67.50
57566;DHT22;63999;43.882;-0.310;2023-09-07T07:21:05;22.80;67.30
57566;DHT22;63999;43.882;-0.310;2023-09-07T07:23:31;22.90;67.70
57566;DHT22;63999;43.882;-0.310;2023-09-07T07:25:57;22.90;67.50
57566;DHT22;63999;43.882;-0.310;2023-09-07T07:28:22;22.90;67.60
57566;DHT22;63999;43.882;-0.310;2023-09-07T07:30:48;23.00;67.70
57566;DHT22;63999;43.882;-0.310;2023-09-07T07:33:14;23.10;68.00
57566;DHT22;63999;43.882;-0.310;2023-09-07T07:35:40;23.10;67.80
57566;DHT22;63999;43.882;-0.310;2023-09-07T07:38:05;23.20;68.40
57566;DHT22;63999;43.882;-0.310;2023-09-07T07:40:34;23.30;68.90
57566;DHT22;63999;43.882;-0.310;2023-09-07T07:43:00;23.30;68.00
57566;DHT22;63999;43.882;-0.310;2023-09-07T07:45:25;23.40;68.30
57566;DHT22;63999;43.882;-0.310;2023-09-07T07:47:53;23.40;68.40
57566;DHT22;63999;43.882;-0.310;2023-09-07T07:50:19;23.50;68.40
57566;DHT22;63999;43.882;-0.310;2023-09-07T07:52:45;23.50;68.40
57566;DHT22;63999;43.882;-0.310;2023-09-07T07:55:11;23.60;68.30
57566;DHT22;63999;43.882;-0.310;2023-09-07T07:57:40;23.60;68.30
57566;DHT22;63999;43.882;-0.310;2023-09-07T08:00:06;23.60;68.70
57566;DHT22;63999;43.882;-0.310;2023-09-07T08:02:32;23.70;68.70
57566;DHT22;63999;43.882;-0.310;2023-09-07T08:04:58;23.80;68.60
57566;DHT22;63999;43.882;-0.310;2023-09-07T08:07:24;23.90;69.00
57566;DHT22;63999;43.882;-0.310;2023-09-07T08:09:50;23.90;68.70
57566;DHT22;63999;43.882;-0.310;2023-09-07T08:12:17;23.90;68.70
57566;DHT22;63999;43.882;-0.310;2023-09-07T08:14:42;24.00;69.00
57566;DHT22;63999;43.882;-0.310;2023-09-07T08:17:08;24.00;68.90
57566;DHT22;63999;43.882;-0.310;2023-09-07T08:19:34;24.00;68.70
57566;DHT22;63999;43.882;-0.310;2023-09-07T08:22:00;24.00;68.50
57566;DHT22;63999;43.882;-0.310;2023-09-07T08:24:29;24.10;68.50
57566;DHT22;63999;43.882;-0.310;2023-09-07T08:26:55;24.20;68.70
57566;DHT22;63999;43.882;-0.310;2023-09-07T08:29:23;24.20;68.70
57566;DHT22;63999;43.882;-0.310;2023-09-07T08:31:53;24.30;68.70
57566;DHT22;63999;43.882;-0.310;2023-09-07T08:34:18;24.30;69.10
57566;DHT22;63999;43.882;-0.310;2023-09-07T08:36:48;24.40;69.10
57566;DHT22;63999;43.882;-0.310;2023-09-07T08:39:16;24.40;69.10
57566;DHT22;63999;43.882;-0.310;2023-09-07T08:41:43;24.40;69.40
57566;DHT22;63999;43.882;-0.310;2023-09-07T08:44:16;24.50;69.40
57566;DHT22;63999;43.882;-0.310;2023-09-07T08:46:43;24.60;69.90
57566;DHT22;63999;43.882;-0.310;2023-09-07T08:49:10;24.70;69.60
57566;DHT22;63999;43.882;-0.310;2023-09-07T08:51:37;24.80;69.70
57566;DHT22;63999;43.882;-0.310;2023-09-07T08:54:07;24.80;69.70
57566;DHT22;63999;43.882;-0.310;2023-09-07T08:56:33;24.80;69.80
57566;DHT22;63999;43.882;-0.310;2023-09-07T08:58:59;24.80;69.90
57566;DHT22;63999;43.882;-0.310;2023-09-07T09:01:25;24.70;69.70
57566;DHT22;63999;43.882;-0.310;2023-09-07T09:03:52;24.80;70.20
57566;DHT22;63999;43.882;-0.310;2023-09-07T09:06:19;24.90;70.10
57566;DHT22;63999;43.882;-0.310;2023-09-07T09:11:18;24.80;70.40
57566;DHT22;63999;43.882;-0.310;2023-09-07T09:13:46;25.00;70.80
57566;DHT22;63999;43.882;-0.310;2023-09-07T09:16:12;25.00;70.50
57566;DHT22;63999;43.882;-0.310;2023-09-07T09:18:54;25.20;70.90
57566;DHT22;63999;43.882;-0.310;2023-09-07T09:21:22;25.20;71.00
57566;DHT22;63999;43.882;-0.310;2023-09-07T09:23:57;25.30;70.70
57566;DHT22;63999;43.882;-0.310;2023-09-07T09:26:23;25.30;70.80
57566;DHT22;63999;43.882;-0.310;2023-09-07T09:28:49;25.30;71.30
57566;DHT22;63999;43.882;-0.310;2023-09-07T09:31:17;25.40;70.90
57566;DHT22;63999;43.882;-0.310;2023-09-07T09:33:48;25.50;70.90
57566;DHT22;63999;43.882;-0.310;2023-09-07T09:36:14;25.60;71.40
57566;DHT22;63999;43.882;-0.310;2023-09-07T09:38:40;25.50;70.90
57566;DHT22;63999;43.882;-0.310;2023-09-07T09:41:06;25.50;70.80
57566;DHT22;63999;43.882;-0.310;2023-09-07T09:43:33;25.40;69.80
57566;DHT22;63999;43.882;-0.310;2023-09-07T09:46:00;25.30;71.10
57566;DHT22;63999;43.882;-0.310;2023-09-07T09:48:27;25.40;71.40
57566;DHT22;63999;43.882;-0.310;2023-09-07T09:50:53;25.40;71.20
57566;DHT22;63999;43.882;-0.310;2023-09-07T09:53:19;25.40;70.80
57566;DHT22;63999;43.882;-0.310;2023-09-07T09:55:50;25.30;71.60
57566;DHT22;63999;43.882;-0.310;2023-09-07T09:58:18;25.40;71.50
57566;DHT22;63999;43.882;-0.310;2023-09-07T10:00:46;25.40;71.50
57566;DHT22;63999;43.882;-0.310;2023-09-07T10:03:21;25.30;71.10
57566;DHT22;63999;43.882;-0.310;2023-09-07T10:05:49;25.30;70.60
57566;DHT22;63999;43.882;-0.310;2023-09-07T10:08:17;25.40;71.80
57566;DHT22;63999;43.882;-0.310;2023-09-07T10:10:46;25.40;70.90
57566;DHT22;63999;43.882;-0.310;2023-09-07T10:13:16;25.40;71.20
57566;DHT22;63999;43.882;-0.310;2023-09-07T10:15:42;25.40;72.10
57566;DHT22;63999;43.882;-0.310;2023-09-07T10:18:13;25.60;71.00
57566;DHT22;63999;43.882;-0.310;2023-09-07T10:20:59;25.50;71.70
57566;DHT22;63999;43.882;-0.310;2023-09-07T10:23:39;25.50;71.90
57566;DHT22;63999;43.882;-0.310;2023-09-07T10:26:09;25.40;71.70
57566;DHT22;63999;43.882;-0.310;2023-09-07T10:28:35;25.50;72.20
57566;DHT22;63999;43.882;-0.310;2023-09-07T10:31:06;25.40;70.50
57566;DHT22;63999;43.882;-0.310;2023-09-07T10:33:35;25.30;71.60
57566;DHT22;63999;43.882;-0.310;2023-09-07T10:36:05;25.40;71.10
57566;DHT22;63999;43.882;-0.310;2023-09-07T10:38:32;25.40;71.60
57566;DHT22;63999;43.882;-0.310;2023-09-07T10:40:59;25.40;71.70
57566;DHT22;63999;43.882;-0.310;2023-09-07T10:43:34;25.60;72.60
57566;DHT22;63999;43.882;-0.310;2023-09-07T10:46:00;25.60;72.00
57566;DHT22;63999;43.882;-0.310;2023-09-07T10:48:29;25.60;72.20
57566;DHT22;63999;43.882;-0.310;2023-09-07T10:50:55;25.40;71.60
57566;DHT22;63999;43.882;-0.310;2023-09-07T10:53:32;25.40;72.30
57566;DHT22;63999;43.882;-0.310;2023-09-07T10:55:59;25.60;72.50
57566;DHT22;63999;43.882;-0.310;2023-09-07T10:58:35;25.60;72.50
57566;DHT22;63999;43.882;-0.310;2023-09-07T11:01:02;25.50;72.10
57566;DHT22;63999;43.882;-0.310;2023-09-07T11:03:31;25.50;72.60
57566;DHT22;63999;43.882;-0.310;2023-09-07T11:06:10;25.60;72.90
57566;DHT22;63999;43.882;-0.310;2023-09-07T11:08:36;25.60;73.00
57566;DHT22;63999;43.882;-0.310;2023-09-07T11:11:02;25.60;72.50
57566;DHT22;63999;43.882;-0.310;2023-09-07T11:13:29;25.60;73.10
57566;DHT22;63999;43.882;-0.310;2023-09-07T11:15:56;25.70;73.10
57566;DHT22;63999;43.882;-0.310;2023-09-07T11:18:22;25.80;73.30
57566;DHT22;63999;43.882;-0.310;2023-09-07T11:20:49;25.80;72.40
57566;DHT22;63999;43.882;-0.310;2023-09-07T11:23:17;25.70;72.70
57566;DHT22;63999;43.882;-0.310;2023-09-07T11:25:43;25.80;73.30
57566;DHT22;63999;43.882;-0.310;2023-09-07T11:28:09;25.80;72.80
57566;DHT22;63999;43.882;-0.310;2023-09-07T11:30:37;25.80;72.30
57566;DHT22;63999;43.882;-0.310;2023-09-07T11:33:05;25.80;72.90
57566;DHT22;63999;43.882;-0.310;2023-09-07T11:35:31;25.70;72.80
57566;DHT22;63999;43.882;-0.310;2023-09-07T11:38:03;25.80;72.30
57566;DHT22;63999;43.882;-0.310;2023-09-07T11:40:30;25.70;73.20
57566;DHT22;63999;43.882;-0.310;2023-09-07T11:42:56;25.70;73.30
57566;DHT22;63999;43.882;-0.310;2023-09-07T11:45:22;25.80;73.60
57566;DHT22;63999;43.882;-0.310;2023-09-07T11:47:48;25.80;73.40
57566;DHT22;63999;43.882;-0.310;2023-09-07T11:50:16;25.80;73.00
57566;DHT22;63999;43.882;-0.310;2023-09-07T11:52:43;25.70;72.80
57566;DHT22;63999;43.882;-0.310;2023-09-07T11:55:09;25.70;73.40
57566;DHT22;63999;43.882;-0.310;2023-09-07T11:57:36;25.80;73.80
57566;DHT22;63999;43.882;-0.310;2023-09-07T12:00:03;25.80;73.80
57566;DHT22;63999;43.882;-0.310;2023-09-07T12:02:30;25.80;73.30
57566;DHT22;63999;43.882;-0.310;2023-09-07T12:04:56;25.80;74.00
57566;DHT22;63999;43.882;-0.310;2023-09-07T12:07:22;25.80;73.70
57566;DHT22;63999;43.882;-0.310;2023-09-07T12:09:47;25.80;72.70
57566;DHT22;63999;43.882;-0.310;2023-09-07T12:12:14;25.70;73.10
57566;DHT22;63999;43.882;-0.310;2023-09-07T12:14:39;25.80;74.00
57566;DHT22;63999;43.882;-0.310;2023-09-07T12:17:05;25.80;73.90
57566;DHT22;63999;43.882;-0.310;2023-09-07T12:19:31;25.80;73.70
57566;DHT22;63999;43.882;-0.310;2023-09-07T12:21:57;25.80;74.10
57566;DHT22;63999;43.882;-0.310;2023-09-07T12:24:22;25.90;74.10
57566;DHT22;63999;43.882;-0.310;2023-09-07T12:26:48;25.90;73.80
57566;DHT22;63999;43.882;-0.310;2023-09-07T12:29:14;25.90;73.80
57566;DHT22;63999;43.882;-0.310;2023-09-07T12:31:40;26.00;73.60
57566;DHT22;63999;43.882;-0.310;2023-09-07T12:34:05;26.00;74.20
57566;DHT22;63999;43.882;-0.310;2023-09-07T12:36:31;26.10;74.60
57566;DHT22;63999;43.882;-0.310;2023-09-07T12:38:57;26.00;73.50
57566;DHT22;63999;43.882;-0.310;2023-09-07T12:41:30;25.90;74.10
57566;DHT22;63999;43.882;-0.310;2023-09-07T12:43:58;26.00;73.90
57566;DHT22;63999;43.882;-0.310;2023-09-07T12:46:24;25.90;73.80
57566;DHT22;63999;43.882;-0.310;2023-09-07T12:48:50;25.90;74.30
57566;DHT22;63999;43.882;-0.310;2023-09-07T12:51:16;26.00;74.40
57566;DHT22;63999;43.882;-0.310;2023-09-07T12:53:41;26.00;74.40
57566;DHT22;63999;43.882;-0.310;2023-09-07T12:56:07;26.00;74.10
57566;DHT22;63999;43.882;-0.310;2023-09-07T12:58:33;26.00;74.20
57566;DHT22;63999;43.882;-0.310;2023-09-07T13:00:59;26.00;73.90
57566;DHT22;63999;43.882;-0.310;2023-09-07T13:03:24;26.00;74.20
57566;DHT22;63999;43.882;-0.310;2023-09-07T13:05:50;26.00;74.00
57566;DHT22;63999;43.882;-0.310;2023-09-07T13:08:16;26.00;74.10
57566;DHT22;63999;43.882;-0.310;2023-09-07T13:10:41;26.00;74.10
57566;DHT22;63999;43.882;-0.310;2023-09-07T13:13:07;26.10;74.70
57566;DHT22;63999;43.882;-0.310;2023-09-07T13:15:33;26.00;74.00
57566;DHT22;63999;43.882;-0.310;2023-09-07T13:17:59;26.00;74.10
57566;DHT22;63999;43.882;-0.310;2023-09-07T13:20:25;26.00;74.60
57566;DHT22;63999;43.882;-0.310;2023-09-07T13:22:51;26.10;75.10
57566;DHT22;63999;43.882;-0.310;2023-09-07T13:25:17;26.10;74.30
57566;DHT22;63999;43.882;-0.310;2023-09-07T13:27:43;26.00;74.60
57566;DHT22;63999;43.882;-0.310;2023-09-07T13:30:09;26.20;75.10
57566;DHT22;63999;43.882;-0.310;2023-09-07T13:32:35;26.40;74.70
57566;DHT22;63999;43.882;-0.310;2023-09-07T13:35:01;26.20;74.40
57566;DHT22;63999;43.882;-0.310;2023-09-07T13:37:26;26.20;74.50
57566;DHT22;63999;43.882;-0.310;2023-09-07T13:39:52;26.10;74.30
57566;DHT22;63999;43.882;-0.310;2023-09-07T13:42:18;26.10;74.10
57566;DHT22;63999;43.882;-0.310;2023-09-07T13:44:43;26.10;74.20
57566;DHT22;63999;43.882;-0.310;2023-09-07T13:47:11;26.00;74.70
57566;DHT22;63999;43.882;-0.310;2023-09-07T13:49:36;26.20;74.70
57566;DHT22;63999;43.882;-0.310;2023-09-07T13:52:02;26.20;74.00
57566;DHT22;63999;43.882;-0.310;2023-09-07T13:54:28;26.20;75.00
57566;DHT22;63999;43.882;-0.310;2023-09-07T13:56:54;26.20;74.60
57566;DHT22;63999;43.882;-0.310;2023-09-07T13:59:20;26.20;74.20
57566;DHT22;63999;43.882;-0.310;2023-09-07T14:01:46;26.20;74.70
57566;DHT22;63999;43.882;-0.310;2023-09-07T14:04:11;26.10;74.20
57566;DHT22;63999;43.882;-0.310;2023-09-07T14:06:37;26.00;74.70
57566;DHT22;63999;43.882;-0.310;2023-09-07T14:09:03;26.20;75.70
57566;DHT22;63999;43.882;-0.310;2023-09-07T14:11:29;26.40;74.60
57566;DHT22;63999;43.882;-0.310;2023-09-07T14:13:56;26.40;75.20
57566;DHT22;63999;43.882;-0.310;2023-09-07T14:16:22;26.40;74.60
57566;DHT22;63999;43.882;-0.310;2023-09-07T14:18:48;26.40;75.80
57566;DHT22;63999;43.882;-0.310;2023-09-07T14:21:15;26.40;74.40
57566;DHT22;63999;43.882;-0.310;2023-09-07T14:23:41;26.40;74.80
57566;DHT22;63999;43.882;-0.310;2023-09-07T14:26:08;26.60;75.50
57566;DHT22;63999;43.882;-0.310;2023-09-07T14:28:34;26.70;75.20
57566;DHT22;63999;43.882;-0.310;2023-09-07T14:31:00;26.70;75.00
57566;DHT22;63999;43.882;-0.310;2023-09-07T14:33:29;26.60;74.80
57566;DHT22;63999;43.882;-0.310;2023-09-07T14:35:55;26.60;75.20
57566;DHT22;63999;43.882;-0.310;2023-09-07T14:38:21;26.70;75.30
57566;DHT22;63999;43.882;-0.310;2023-09-07T14:40:49;26.80;75.30
57566;DHT22;63999;43.882;-0.310;2023-09-07T14:43:16;26.90;75.10
57566;DHT22;63999;43.882;-0.310;2023-09-07T14:45:43;26.90;75.70
57566;DHT22;63999;43.882;-0.310;2023-09-07T14:48:09;27.00;73.60
57566;DHT22;63999;43.882;-0.310;2023-09-07T14:50:35;26.90;74.20
57566;DHT22;63999;43.882;-0.310;2023-09-07T14:53:00;26.90;75.00
57566;DHT22;63999;43.882;-0.310;2023-09-07T14:55:26;26.90;74.80
57566;DHT22;63999;43.882;-0.310;2023-09-07T14:57:52;26.80;73.90
57566;DHT22;63999;43.882;-0.310;2023-09-07T15:00:18;26.70;73.90
57566;DHT22;63999;43.882;-0.310;2023-09-07T15:02:43;26.60;73.90
57566;DHT22;63999;43.882;-0.310;2023-09-07T15:05:09;26.60;75.10
57566;DHT22;63999;43.882;-0.310;2023-09-07T15:07:35;26.70;74.40
57566;DHT22;63999;43.882;-0.310;2023-09-07T15:10:00;26.70;74.80
57566;DHT22;63999;43.882;-0.310;2023-09-07T15:12:26;26.70;74.60
57566;DHT22;63999;43.882;-0.310;2023-09-07T15:14:52;26.80;74.70